Time;durP1;ratioP1;P1;durP2;ratioP2;P2;SDS_P1;SDS_P2;PMS_P1;PMS_P2;Temp;Humidity;BMP_temperature;BMP_pressure;BME280_temperature;BME280_humidity;BME280_pressure;Samples;Min_cycle;Max_cycle;Signal;HPM_P1;HPM_P2
2022/01/12 00:00:53;;;;;;;112.43;41.20;;;-4.20;1.00;;;;;;4916194;29;20213;-82
2022/01/12 00:03:20;;;;;;;105.07;40.67;;;-4.20;1.00;;;;;;4915907;29;20205;-82
2022/01/12 00:05:47;;;;;;;116.13;41.03;;;-4.20;1.00;;;;;;4916205;29;20601;-82
2022/01/12 00:08:14;;;;;;;112.73;39.87;;;-4.30;1.00;;;;;;4915571;29;20205;-82
2022/01/12 00:10:44;;;;;;;107.50;42.50;;;-4.30;1.00;;;;;;4916064;29;20257;-82
2022/01/12 00:13:11;;;;;;;105.33;41.83;;;-4.30;1.00;;;;;;4916188;29;20197;-82
2022/01/12 00:15:39;;;;;;;108.90;42.10;;;-4.30;1.00;;;;;;4915847;29;20197;-82
2022/01/12 00:18:08;;;;;;;116.90;44.43;;;-4.30;1.00;;;;;;4915931;29;20221;-82
2022/01/12 00:20:36;;;;;;;127.60;47.97;;;-4.30;1.00;;;;;;4915598;29;20244;-82
2022/01/12 00:23:03;;;;;;;126.67;46.70;;;-4.40;1.00;;;;;;4916168;29;20547;-82
2022/01/12 00:25:33;;;;;;;123.60;43.47;;;-4.40;1.00;;;;;;4915899;29;20205;-82
2022/01/12 00:33:30;;;;;;;120.87;42.40;;;-4.40;1.00;;;;;;4915968;29;20268;-82
2022/01/12 00:35:59;;;;;;;130.67;46.07;;;-4.50;1.00;;;;;;4915293;29;20205;-82
2022/01/12 00:38:30;;;;;;;127.77;44.23;;;-4.50;1.00;;;;;;4896764;29;20666;-82
2022/01/12 00:40:58;;;;;;;136.40;47.17;;;-4.50;1.00;;;;;;4897329;29;20278;-82
2022/01/12 00:43:29;;;;;;;130.87;45.23;;;-4.50;1.00;;;;;;4896722;29;20210;-82
2022/01/12 00:45:58;;;;;;;124.10;45.23;;;-4.50;1.00;;;;;;4896928;29;20201;-82
2022/01/12 00:48:25;;;;;;;119.17;43.37;;;-4.50;1.00;;;;;;4896914;29;20626;-82
2022/01/12 00:50:52;;;;;;;118.03;44.97;;;-4.50;1.00;;;;;;4897245;29;20673;-82
2022/01/12 00:53:19;;;;;;;114.07;44.43;;;-4.50;1.00;;;;;;4900574;29;20206;-82
2022/01/12 00:55:46;;;;;;;111.97;43.97;;;-4.50;1.00;;;;;;4900136;29;20608;-82
2022/01/12 00:58:13;;;;;;;110.80;43.83;;;-4.50;1.00;;;;;;4900392;29;20238;-82
2022/01/12 01:00:40;;;;;;;111.77;42.00;;;-4.50;1.00;;;;;;4899901;29;20611;-82
2022/01/12 01:03:09;;;;;;;116.13;44.33;;;-4.50;1.00;;;;;;4899986;29;20246;-82
2022/01/12 01:05:37;;;;;;;119.67;44.17;;;-4.40;1.00;;;;;;4900116;29;20212;-82
2022/01/12 01:08:05;;;;;;;125.70;43.83;;;-4.40;1.00;;;;;;4918993;29;20197;-82
2022/01/12 01:10:46;;;;;;;137.00;49.07;;;-4.40;1.00;;;;;;4919222;29;20268;-82
2022/01/12 01:13:15;;;;;;;131.10;49.13;;;-4.40;1.00;;;;;;4918673;29;20676;-82
2022/01/12 01:26:51;;;;;;;120.07;40.67;;;-4.40;1.00;;;;;;4918538;29;20545;-82
2022/01/12 01:29:18;;;;;;;113.30;43.07;;;-4.40;1.00;;;;;;4918241;29;20671;-82
2022/01/12 01:31:46;;;;;;;120.80;45.13;;;-4.40;1.00;;;;;;4918262;29;20201;-82
2022/01/12 01:34:15;;;;;;;133.63;45.73;;;-4.40;1.00;;;;;;4918165;29;20205;-82
2022/01/12 01:36:45;;;;;;;123.60;47.00;;;-4.40;1.00;;;;;;4918685;29;20209;-82
2022/01/12 01:39:15;;;;;;;117.67;43.07;;;-4.30;1.00;;;;;;4918435;29;20217;-82
2022/01/12 01:41:46;;;;;;;122.47;43.60;;;-4.30;1.00;;;;;;4918467;29;20201;-82
2022/01/12 01:55:13;;;;;;;109.80;41.57;;;-4.30;1.00;;;;;;4918083;29;20184;-82
2022/01/12 01:57:41;;;;;;;99.43;36.10;;;-4.30;1.00;;;;;;4918161;29;20622;-82
2022/01/12 02:00:11;;;;;;;111.23;41.47;;;-4.40;1.00;;;;;;4917925;29;20763;-82
2022/01/12 02:02:39;;;;;;;115.17;42.07;;;-4.40;1.00;;;;;;4917639;29;20249;-82
2022/01/12 02:05:08;;;;;;;111.60;40.83;;;-4.30;1.00;;;;;;4918250;29;20597;-82
2022/01/12 02:07:35;;;;;;;105.67;40.17;;;-4.30;1.00;;;;;;4918208;29;20201;-82
2022/01/12 02:10:04;;;;;;;121.27;45.00;;;-4.30;1.00;;;;;;4911518;29;20269;-82
2022/01/12 02:12:31;;;;;;;108.77;40.27;;;-4.30;1.00;;;;;;4898614;29;20666;-82
2022/01/12 02:15:01;;;;;;;110.00;39.80;;;-4.30;1.00;;;;;;4898616;29;20611;-82
2022/01/12 02:17:34;;;;;;;98.17;37.63;;;-4.30;1.00;;;;;;4898946;29;20202;-82
2022/01/12 02:20:27;;;;;;;109.80;41.97;;;-4.30;1.00;;;;;;4898903;29;20222;-82
2022/01/12 02:36:57;;;;;;;121.00;44.60;;;-4.20;1.00;;;;;;4898475;29;20616;-82
2022/01/12 02:39:51;;;;;;;105.00;38.70;;;-4.30;1.00;;;;;;4898608;29;20225;-82
2022/01/12 02:42:18;;;;;;;113.07;37.43;;;-4.20;1.00;;;;;;4917448;29;20196;-82
2022/01/12 02:55:45;;;;;;;109.93;40.83;;;-4.10;97.50;;;;;;4917037;29;20228;-82
2022/01/12 02:58:12;;;;;;;116.77;41.97;;;-4.10;87.80;;;;;;4916883;29;20225;-82
2022/01/12 03:01:00;;;;;;;118.80;44.40;;;-4.10;91.10;;;;;;4916843;29;20724;-82
2022/01/12 03:03:31;;;;;;;119.40;45.77;;;-4.10;90.50;;;;;;4917067;29;20221;-82
2022/01/12 03:06:02;;;;;;;124.67;44.30;;;-4.10;91.50;;;;;;4916861;29;20202;-82
2022/01/12 03:08:36;;;;;;;110.07;40.20;;;-4.10;92.90;;;;;;4916939;29;20193;-82
2022/01/12 03:11:05;;;;;;;109.77;40.30;;;-4.10;97.80;;;;;;4917029;29;20334;-82
2022/01/12 03:13:32;;;;;;;117.50;41.00;;;-4.10;95.20;;;;;;4916230;29;20217;-82
2022/01/12 03:15:59;;;;;;;108.70;38.23;;;-4.10;99.90;;;;;;4916465;29;20202;-82
2022/01/12 03:18:26;;;;;;;111.57;40.30;;;-4.10;99.90;;;;;;4916751;29;20277;-82
2022/01/12 03:20:53;;;;;;;113.03;41.50;;;-4.10;99.90;;;;;;4916696;29;20241;-82
2022/01/12 03:23:21;;;;;;;108.17;40.50;;;-4.00;99.90;;;;;;4916407;29;20197;-82
2022/01/12 03:25:49;;;;;;;106.37;42.10;;;-4.00;99.90;;;;;;4916275;29;20249;-81
2022/01/12 03:28:18;;;;;;;104.73;38.87;;;-4.00;99.90;;;;;;4916216;29;20209;-82
2022/01/12 03:30:53;;;;;;;103.80;42.13;;;-4.00;99.90;;;;;;4916276;29;20210;-82
2022/01/12 03:33:36;;;;;;;106.53;41.70;;;-4.00;99.90;;;;;;4916376;29;20197;-82
2022/01/12 04:09:06;;;;;;;96.13;36.23;;;-4.00;99.90;;;;;;4915947;29;20269;-82
2022/01/12 04:11:33;;;;;;;118.23;39.63;;;-4.00;99.90;;;;;;4916079;29;20213;-82
2022/01/12 04:14:00;;;;;;;114.90;44.13;;;-3.90;99.90;;;;;;4916147;29;20201;-82
2022/01/12 04:16:28;;;;;;;107.03;39.03;;;-3.90;99.90;;;;;;4916193;29;20205;-82
2022/01/12 04:18:55;;;;;;;113.13;40.53;;;-3.90;99.90;;;;;;4915610;29;20597;-82
2022/01/12 04:21:28;;;;;;;95.50;38.43;;;-3.90;99.90;;;;;;4915780;29;20611;-82
2022/01/12 04:23:55;;;;;;;116.77;44.67;;;-3.90;99.90;;;;;;4916153;29;20225;-82
2022/01/12 04:26:23;;;;;;;112.20;40.93;;;-3.90;99.90;;;;;;4919088;29;20221;-82
2022/01/12 04:28:50;;;;;;;109.07;38.10;;;-3.90;99.90;;;;;;4919675;29;20340;-82
2022/01/12 04:31:17;;;;;;;110.97;43.20;;;-3.90;99.90;;;;;;4919603;29;20201;-82
2022/01/12 04:33:45;;;;;;;102.60;37.90;;;-3.90;99.90;;;;;;4919799;29;20276;-82
2022/01/12 04:36:13;;;;;;;117.70;42.63;;;-3.90;99.90;;;;;;4919499;29;20202;-82
2022/01/12 04:38:44;;;;;;;117.17;43.83;;;-3.90;99.90;;;;;;4919533;29;20201;-82
2022/01/12 04:41:12;;;;;;;107.23;39.73;;;-3.90;99.90;;;;;;4919560;29;20252;-82
2022/01/12 04:43:41;;;;;;;121.70;43.67;;;-3.90;99.90;;;;;;4919464;29;20205;-82
2022/01/12 04:46:24;;;;;;;115.40;43.33;;;-3.90;99.90;;;;;;4919293;29;20212;-82
2022/01/12 04:49:08;;;;;;;119.63;40.30;;;-3.90;99.90;;;;;;4919342;29;20193;-82
2022/01/12 04:51:37;;;;;;;110.27;44.37;;;-3.90;99.90;;;;;;4919324;29;20194;-82
2022/01/12 04:54:05;;;;;;;116.30;42.30;;;-3.80;99.90;;;;;;4919226;29;20623;-82
2022/01/12 04:56:33;;;;;;;117.10;42.27;;;-3.80;99.90;;;;;;4919386;29;20582;-82
2022/01/12 04:59:01;;;;;;;105.17;38.30;;;-3.80;99.90;;;;;;4918784;29;20703;-82
2022/01/12 05:01:35;;;;;;;103.27;38.33;;;-3.80;99.90;;;;;;4918860;29;20293;-82
2022/01/12 05:06:55;;;;;;;120.70;41.20;;;-3.70;99.90;;;;;;4919107;29;20557;-82
2022/01/12 05:15:04;;;;;;;115.70;40.97;;;-3.70;99.90;;;;;;4918711;29;20184;-82
2022/01/12 05:17:33;;;;;;;114.03;41.43;;;-3.70;99.90;;;;;;4918568;29;20249;-82
2022/01/12 05:20:00;;;;;;;131.40;44.70;;;-3.60;99.90;;;;;;4918752;29;20229;-82
2022/01/12 05:22:27;;;;;;;131.37;42.77;;;-3.60;99.90;;;;;;4918688;29;20201;-82
2022/01/12 05:24:55;;;;;;;110.73;39.43;;;-3.60;99.90;;;;;;4918768;29;20260;-82
2022/01/12 05:27:22;;;;;;;123.93;43.60;;;-3.60;99.90;;;;;;4918372;29;20205;-82
2022/01/12 05:29:49;;;;;;;113.63;41.00;;;-3.60;99.90;;;;;;4916982;29;20819;-84
2022/01/12 05:32:16;;;;;;;113.90;41.63;;;-3.60;99.90;;;;;;4918393;29;20668;-84
2022/01/12 05:34:43;;;;;;;111.77;42.10;;;-3.50;99.90;;;;;;4918200;29;20205;-85
2022/01/12 05:37:10;;;;;;;127.00;45.80;;;-3.50;99.90;;;;;;4917142;29;20312;-83
2022/01/12 05:39:38;;;;;;;115.20;41.83;;;-3.50;99.90;;;;;;4917760;29;20273;-83
2022/01/12 05:42:07;;;;;;;117.70;43.73;;;-3.50;99.90;;;;;;4915384;29;20842;-83
2022/01/12 05:44:36;;;;;;;124.37;42.80;;;-3.50;99.90;;;;;;4898681;29;20202;-84
2022/01/12 05:47:05;;;;;;;117.40;41.60;;;-3.40;99.90;;;;;;4899376;29;20202;-81
2022/01/12 05:49:34;;;;;;;114.60;44.07;;;-3.50;99.90;;;;;;4899410;29;20202;-84
2022/01/12 05:52:01;;;;;;;107.80;41.33;;;-3.50;99.90;;;;;;4899015;29;20202;-83
2022/01/12 05:54:29;;;;;;;114.97;42.70;;;-3.40;99.90;;;;;;4904047;29;20608;-81
2022/01/12 05:56:56;;;;;;;133.20;49.27;;;-3.40;99.90;;;;;;4909642;29;20229;-84
2022/01/12 05:59:24;;;;;;;110.13;41.77;;;-3.40;99.90;;;;;;4917637;29;20229;-82
2022/01/12 06:01:51;;;;;;;115.00;40.60;;;-3.40;99.90;;;;;;4913018;29;20210;-81
2022/01/12 06:04:18;;;;;;;117.07;43.23;;;-3.40;99.90;;;;;;4899135;29;20253;-85
2022/01/12 06:06:46;;;;;;;112.23;41.57;;;-3.30;99.90;;;;;;4899155;29;20205;-85
2022/01/12 06:09:13;;;;;;;108.33;40.70;;;-3.30;99.90;;;;;;4899086;29;20285;-85
2022/01/12 06:11:39;;;;;;;125.67;48.07;;;-3.30;99.90;;;;;;4898931;29;20717;-81
2022/01/12 06:14:07;;;;;;;122.07;45.53;;;-3.30;99.90;;;;;;4898640;29;20729;-83
2022/01/12 06:16:36;;;;;;;119.13;46.77;;;-3.40;99.90;;;;;;4898890;29;20198;-84
2022/01/12 06:19:03;;;;;;;115.00;43.77;;;-3.30;99.90;;;;;;4898934;29;20246;-82
2022/01/12 06:21:32;;;;;;;136.83;47.67;;;-3.30;99.90;;;;;;4898906;29;20621;-82
2022/01/12 06:23:59;;;;;;;128.27;49.63;;;-3.30;99.90;;;;;;4898860;29;20277;-82
2022/01/12 06:26:27;;;;;;;117.23;45.73;;;-3.40;99.90;;;;;;4898499;29;20202;-84
2022/01/12 06:29:15;;;;;;;125.03;46.40;;;-3.30;99.90;;;;;;4898738;29;20208;-85
2022/01/12 06:31:47;;;;;;;116.17;44.00;;;-3.40;99.90;;;;;;4898737;29;20621;-85
2022/01/12 06:34:14;;;;;;;119.73;43.53;;;-3.30;99.90;;;;;;4898367;29;20190;-82
2022/01/12 06:36:41;;;;;;;126.63;47.83;;;-3.30;99.90;;;;;;4898628;29;20202;-83
2022/01/12 06:39:10;;;;;;;132.00;45.17;;;-3.30;99.90;;;;;;4898583;29;20262;-85
2022/01/12 06:41:38;;;;;;;126.63;46.53;;;-3.40;99.90;;;;;;4898511;29;20266;-83
2022/01/12 06:44:06;;;;;;;126.23;45.67;;;-3.30;99.90;;;;;;4898465;29;20209;-83
2022/01/12 06:46:34;;;;;;;107.33;41.60;;;-3.40;99.90;;;;;;4897549;29;20257;-83
2022/01/12 06:49:03;;;;;;;108.70;41.57;;;-3.30;99.90;;;;;;4897686;29;20208;-83
2022/01/12 06:51:30;;;;;;;111.83;44.87;;;-3.40;99.90;;;;;;4898380;29;20348;-82
2022/01/12 06:53:57;;;;;;;124.37;47.07;;;-3.30;99.90;;;;;;4898377;29;20203;-83
2022/01/12 06:56:24;;;;;;;120.37;49.57;;;-3.30;99.90;;;;;;4898116;29;20282;-83
2022/01/12 06:58:51;;;;;;;126.83;48.53;;;-3.30;99.90;;;;;;4898515;29;20190;-82
2022/01/12 07:01:18;;;;;;;130.50;49.23;;;-3.30;99.90;;;;;;4898100;29;20229;-84
2022/01/12 07:03:45;;;;;;;125.63;46.43;;;-3.30;99.90;;;;;;4898112;29;20209;-81
2022/01/12 07:06:13;;;;;;;118.67;45.90;;;-3.30;99.90;;;;;;4898161;29;20202;-82
2022/01/12 07:08:40;;;;;;;104.50;39.83;;;-3.30;99.90;;;;;;4897685;29;20262;-82
2022/01/12 07:11:07;;;;;;;129.13;51.87;;;-3.30;99.90;;;;;;4897968;29;20214;-83
2022/01/12 07:13:37;;;;;;;111.37;44.83;;;-3.30;99.90;;;;;;4897684;29;20206;-82
2022/01/12 07:16:06;;;;;;;128.30;56.77;;;-3.30;99.90;;;;;;4897622;29;20677;-81
2022/01/12 07:18:33;;;;;;;118.17;45.20;;;-3.30;99.90;;;;;;4897572;29;20258;-82
2022/01/12 07:21:01;;;;;;;121.73;51.53;;;-3.30;99.90;;;;;;4897795;29;20221;-85
2022/01/12 07:23:29;;;;;;;149.07;67.63;;;-3.30;99.90;;;;;;4897717;29;20249;-85
2022/01/12 07:25:56;;;;;;;132.40;49.60;;;-3.30;99.90;;;;;;4897844;29;20210;-82
2022/01/12 07:28:24;;;;;;;161.03;55.87;;;-3.30;99.90;;;;;;4898038;29;20258;-81
2022/01/12 07:30:52;;;;;;;129.53;47.77;;;-3.20;99.90;;;;;;4897398;29;20669;-81
2022/01/12 07:33:20;;;;;;;150.50;57.53;;;-3.20;99.90;;;;;;4897571;29;20249;-84
2022/01/12 07:35:47;;;;;;;159.33;64.20;;;-3.20;99.90;;;;;;4897595;29;20292;-83
2022/01/12 07:38:14;;;;;;;121.37;45.50;;;-3.10;99.90;;;;;;4897647;29;20258;-83
2022/01/12 07:40:43;;;;;;;107.57;43.40;;;-3.10;99.90;;;;;;4897176;29;20277;-83
2022/01/12 07:43:10;;;;;;;133.07;49.70;;;-3.10;99.90;;;;;;4897192;29;20206;-81
2022/01/12 07:45:39;;;;;;;153.37;52.73;;;-3.10;99.90;;;;;;4897444;29;20202;-84
2022/01/12 07:48:06;;;;;;;138.23;50.23;;;-3.00;99.90;;;;;;4897136;29;20202;-83
2022/01/12 07:50:34;;;;;;;119.93;44.50;;;-3.00;99.90;;;;;;4900359;29;20201;-83
2022/01/12 07:53:01;;;;;;;121.53;48.00;;;-3.00;99.90;;;;;;4917559;29;20205;-85
2022/01/12 07:55:28;;;;;;;116.97;47.07;;;-3.00;99.90;;;;;;4916554;29;20201;-83
2022/01/12 07:57:56;;;;;;;126.80;47.83;;;-2.90;99.90;;;;;;4916419;29;20688;-84
2022/01/12 08:00:23;;;;;;;128.10;52.87;;;-2.80;99.90;;;;;;4924265;29;20221;-85
2022/01/12 08:02:51;;;;;;;119.20;44.50;;;-2.80;99.90;;;;;;4929504;29;20272;-85
2022/01/12 08:05:19;;;;;;;128.30;48.97;;;-2.80;99.90;;;;;;4929639;29;20201;-85
2022/01/12 08:07:47;;;;;;;131.17;50.70;;;-2.70;99.90;;;;;;4929617;29;20608;-84
2022/01/12 08:10:15;;;;;;;134.97;50.77;;;-2.60;99.90;;;;;;4929275;29;20205;-83
2022/01/12 08:12:43;;;;;;;98.80;37.77;;;-2.50;99.90;;;;;;4927276;29;20193;-83
2022/01/12 08:15:11;;;;;;;115.27;43.43;;;-2.50;99.90;;;;;;4926920;29;20197;-81
2022/01/12 08:17:39;;;;;;;149.93;62.57;;;-2.40;99.90;;;;;;4926253;29;20253;-85
2022/01/12 08:20:11;;;;;;;111.23;42.37;;;-2.30;99.90;;;;;;4925796;29;20561;-82
2022/01/12 08:22:40;;;;;;;124.07;49.37;;;-2.30;99.90;;;;;;4923660;29;20207;-82
2022/01/12 08:25:09;;;;;;;111.73;39.13;;;-2.30;99.90;;;;;;4922259;29;20273;-83
2022/01/12 08:27:36;;;;;;;123.13;46.27;;;-2.20;99.90;;;;;;4921759;29;20260;-84
2022/01/12 08:30:05;;;;;;;139.03;54.43;;;-2.10;99.90;;;;;;4921670;29;20205;-85
2022/01/12 08:32:34;;;;;;;100.43;39.07;;;-2.10;99.90;;;;;;4921688;29;20205;-86
2022/01/12 08:35:01;;;;;;;104.33;38.53;;;-2.00;99.90;;;;;;4921026;29;20245;-82
2022/01/12 08:37:28;;;;;;;66.03;26.40;;;-2.00;99.90;;;;;;4921287;29;20614;-85
2022/01/12 08:39:55;;;;;;;87.07;33.53;;;-1.90;99.90;;;;;;4921574;29;20201;-86
2022/01/12 08:42:22;;;;;;;94.17;37.03;;;-2.00;99.90;;;;;;4922258;29;20205;-84
2022/01/12 08:44:49;;;;;;;101.37;42.57;;;-1.90;99.90;;;;;;4922089;29;20205;-84
2022/01/12 08:47:16;;;;;;;97.17;38.30;;;-1.80;99.90;;;;;;4921866;29;20205;-84
2022/01/12 08:49:44;;;;;;;96.63;43.03;;;-1.80;99.90;;;;;;4921755;29;20728;-84
2022/01/12 08:52:11;;;;;;;93.90;35.83;;;-1.80;99.90;;;;;;4921820;29;20260;-84
2022/01/12 08:54:38;;;;;;;82.00;32.77;;;-1.70;99.90;;;;;;4921786;29;20321;-85
2022/01/12 08:57:06;;;;;;;105.87;36.03;;;-1.70;99.90;;;;;;4922043;29;20232;-83
2022/01/12 08:59:34;;;;;;;101.47;38.13;;;-1.60;99.90;;;;;;4922042;29;20261;-82
2022/01/12 09:02:01;;;;;;;98.07;35.73;;;-1.50;99.90;;;;;;4922018;29;20225;-85
2022/01/12 09:04:28;;;;;;;90.70;33.57;;;-1.40;28.40;;;;;;4921265;29;20229;-82
2022/01/12 09:06:57;;;;;;;93.73;36.03;;;-1.40;29.40;;;;;;4907858;29;20268;-84
2022/01/12 09:09:25;;;;;;;87.70;34.17;;;-1.30;44.30;;;;;;4919114;29;20687;-81
2022/01/12 09:11:53;;;;;;;85.13;31.63;;;-1.30;43.50;;;;;;4919420;29;20206;-84
2022/01/12 09:14:20;;;;;;;90.53;36.23;;;-1.20;55.50;;;;;;4918963;29;20201;-84
2022/01/12 09:16:54;;;;;;;86.83;33.13;;;-1.10;44.20;;;;;;4918545;29;20205;-83
2022/01/12 09:19:21;;;;;;;84.10;31.73;;;-1.00;25.70;;;;;;4918635;29;20240;-83
2022/01/12 09:21:48;;;;;;;84.67;31.87;;;-1.00;8.60;;;;;;4918745;29;20233;-82
2022/01/12 09:24:17;;;;;;;83.90;30.97;;;-0.90;13.50;;;;;;4918904;29;20201;-85
2022/01/12 09:26:44;;;;;;;83.63;32.43;;;-0.90;1.00;;;;;;4918748;29;20201;-82
2022/01/12 09:29:11;;;;;;;76.33;30.23;;;-0.80;2.40;;;;;;4918792;29;20273;-83
2022/01/12 09:31:38;;;;;;;89.00;35.23;;;-0.80;1.00;;;;;;4918531;29;20579;-83
2022/01/12 09:34:06;;;;;;;82.00;32.20;;;-0.70;5.10;;;;;;4918537;29;20261;-86
2022/01/12 09:36:34;;;;;;;81.10;31.27;;;-0.70;1.70;;;;;;4918326;29;20233;-85
2022/01/12 09:39:01;;;;;;;83.07;30.97;;;-0.60;1.00;;;;;;4918458;29;20237;-83
2022/01/12 09:41:30;;;;;;;84.70;32.30;;;-0.60;1.00;;;;;;4918446;29;20284;-82
2022/01/12 09:43:58;;;;;;;71.37;30.57;;;-0.50;5.80;;;;;;4918487;29;20201;-82
2022/01/12 09:46:26;;;;;;;78.27;31.60;;;-0.40;1.00;;;;;;4917411;29;20237;-84
2022/01/12 09:48:54;;;;;;;82.30;32.70;;;-0.30;1.00;;;;;;4918075;29;20224;-86
2022/01/12 09:51:23;;;;;;;73.23;30.40;;;-0.30;1.00;;;;;;4917991;29;20213;-83
2022/01/12 09:53:51;;;;;;;75.63;30.43;;;-0.20;1.00;;;;;;4917565;29;20558;-82
2022/01/12 09:56:20;;;;;;;74.83;30.20;;;-0.20;1.00;;;;;;4917787;29;20249;-86
2022/01/12 09:58:51;;;;;;;80.47;32.10;;;-0.20;1.00;;;;;;4917886;29;20232;-85
2022/01/12 10:01:27;;;;;;;68.47;29.27;;;-0.10;1.00;;;;;;4917814;29;20866;-83
2022/01/12 10:03:54;;;;;;;85.87;34.77;;;0.00;1.00;;;;;;4918081;29;20221;-82
2022/01/12 10:06:21;;;;;;;77.77;31.07;;;0.00;1.00;;;;;;4918152;29;20245;-85
2022/01/12 10:08:53;;;;;;;83.00;31.90;;;0.10;1.00;;;;;;4917689;29;20724;-81
2022/01/12 10:11:20;;;;;;;74.67;31.27;;;0.10;1.00;;;;;;4917647;29;20648;-83
2022/01/12 10:13:58;;;;;;;73.20;30.23;;;0.20;1.00;;;;;;4917589;29;20656;-86
2022/01/12 10:16:26;;;;;;;73.40;28.40;;;0.20;1.00;;;;;;4917607;29;20708;-83
2022/01/12 10:18:55;;;;;;;71.90;30.53;;;0.20;1.00;;;;;;4917622;29;20197;-84
2022/01/12 10:21:31;;;;;;;73.20;30.53;;;0.20;1.00;;;;;;4917429;29;20217;-82
2022/01/12 10:23:59;;;;;;;66.27;28.97;;;0.20;1.00;;;;;;4909273;29;20197;-82
2022/01/12 10:26:37;;;;;;;72.87;30.40;;;0.20;1.00;;;;;;4917204;29;20205;-85
2022/01/12 10:29:09;;;;;;;80.83;32.57;;;0.20;1.00;;;;;;4917934;29;20193;-83
2022/01/12 10:31:51;;;;;;;76.60;31.77;;;0.20;1.00;;;;;;4921474;29;20189;-83
2022/01/12 10:34:20;;;;;;;83.13;33.30;;;0.20;1.00;;;;;;4926359;29;20194;-85
2022/01/12 10:36:48;;;;;;;81.00;33.77;;;0.30;1.00;;;;;;4927115;29;20615;-81
2022/01/12 10:39:16;;;;;;;86.60;33.97;;;0.20;1.00;;;;;;4927163;29;20209;-81
2022/01/12 10:41:54;;;;;;;72.53;30.70;;;0.20;1.00;;;;;;4927270;29;20225;-84
2022/01/12 10:44:24;;;;;;;70.40;28.63;;;0.20;1.00;;;;;;4927084;29;20189;-84
2022/01/12 10:46:51;;;;;;;67.77;29.13;;;0.20;1.00;;;;;;4926391;29;20194;-85
2022/01/12 10:49:22;;;;;;;73.47;30.47;;;0.20;1.00;;;;;;4926014;29;20201;-82
2022/01/12 10:51:56;;;;;;;85.40;33.67;;;0.20;1.00;;;;;;4926005;29;20204;-85
2022/01/12 10:54:24;;;;;;;76.60;28.83;;;0.30;1.00;;;;;;4925543;29;20426;-83
2022/01/12 10:56:51;;;;;;;68.90;30.27;;;0.30;1.00;;;;;;4924892;29;20266;-84
2022/01/12 10:59:20;;;;;;;67.17;29.07;;;0.30;1.00;;;;;;4925376;29;20205;-82
2022/01/12 11:01:49;;;;;;;71.43;28.40;;;0.30;1.00;;;;;;4925393;29;20225;-83
2022/01/12 11:04:16;;;;;;;67.43;27.17;;;0.30;1.00;;;;;;4924882;29;20201;-83
2022/01/12 11:06:43;;;;;;;67.30;26.53;;;0.30;1.00;;;;;;4925448;29;20265;-81
2022/01/12 11:09:10;;;;;;;69.97;28.70;;;0.30;99.90;;;;;;4925621;29;20260;-85
2022/01/12 11:11:37;;;;;;;73.30;29.17;;;0.30;1.00;;;;;;4920487;29;20205;-82
2022/01/12 11:14:04;;;;;;;76.07;30.60;;;0.30;1.00;;;;;;4921261;29;20253;-84
2022/01/12 11:16:31;;;;;;;81.00;32.37;;;0.30;1.00;;;;;;4921358;29;20196;-81
2022/01/12 11:19:01;;;;;;;73.40;29.17;;;0.30;1.00;;;;;;4922378;29;20336;-82
2022/01/12 11:21:41;;;;;;;73.07;28.60;;;0.30;1.00;;;;;;4922512;29;20221;-84
2022/01/12 11:24:12;;;;;;;69.93;29.20;;;0.40;1.00;;;;;;4924322;29;20220;-84
2022/01/12 11:26:47;;;;;;;72.13;31.43;;;0.40;1.00;;;;;;4924302;29;20206;-82
2022/01/12 11:29:14;;;;;;;70.50;29.87;;;0.40;1.00;;;;;;4924121;29;20192;-84
2022/01/12 11:31:41;;;;;;;71.80;29.57;;;0.40;1.00;;;;;;4916881;29;20253;-84
2022/01/12 11:34:19;;;;;;;77.23;29.43;;;0.40;1.00;;;;;;4916513;29;20209;-83
2022/01/12 11:36:46;;;;;;;67.67;27.80;;;0.40;1.00;;;;;;4913601;29;20258;-82
2022/01/12 11:39:18;;;;;;;67.53;29.73;;;0.40;1.00;;;;;;4915842;29;20209;-83
2022/01/12 11:41:48;;;;;;;79.07;32.40;;;0.50;1.00;;;;;;4916424;29;20269;-82
2022/01/12 11:44:17;;;;;;;79.17;32.47;;;0.50;1.00;;;;;;4916218;29;20210;-83
2022/01/12 11:46:47;;;;;;;77.07;32.13;;;0.50;1.00;;;;;;4915453;29;20273;-83
2022/01/12 11:49:28;;;;;;;71.40;30.90;;;0.50;1.00;;;;;;4913263;29;20193;-85
2022/01/12 11:51:55;;;;;;;67.70;28.90;;;0.50;1.00;;;;;;4915772;29;20630;-83
2022/01/12 11:54:30;;;;;;;75.80;33.27;;;0.50;1.00;;;;;;4915825;29;20752;-84
2022/01/12 11:56:59;;;;;;;75.23;29.73;;;0.50;1.00;;;;;;4915337;29;20731;-85
2022/01/12 11:59:28;;;;;;;73.00;30.40;;;0.50;1.00;;;;;;4915942;29;20205;-83
2022/01/12 12:02:11;;;;;;;72.07;30.00;;;0.50;1.00;;;;;;4915386;29;20225;-84
2022/01/12 12:04:39;;;;;;;63.07;26.97;;;0.60;1.00;;;;;;4915905;29;20558;-82
2022/01/12 12:07:09;;;;;;;61.67;25.00;;;0.50;1.00;;;;;;4916080;29;20205;-84
2022/01/12 12:09:42;;;;;;;60.77;24.90;;;0.60;1.00;;;;;;4916537;29;20185;-82
2022/01/12 12:12:14;;;;;;;61.27;25.83;;;0.60;1.00;;;;;;4916254;29;20206;-85
2022/01/12 12:14:45;;;;;;;66.77;25.30;;;0.50;1.00;;;;;;4916140;29;20253;-85
2022/01/12 12:17:12;;;;;;;59.47;25.37;;;0.60;1.00;;;;;;4915565;29;20240;-85
2022/01/12 12:19:41;;;;;;;69.47;28.03;;;0.60;1.00;;;;;;4916044;29;20724;-84
2022/01/12 12:22:10;;;;;;;69.97;27.90;;;0.70;1.00;;;;;;4915581;29;20217;-83
2022/01/12 12:24:37;;;;;;;72.07;27.73;;;0.70;1.00;;;;;;4916403;29;20216;-85
2022/01/12 12:27:06;;;;;;;68.27;26.30;;;0.70;1.00;;;;;;4915786;29;20201;-83
2022/01/12 12:29:32;;;;;;;62.97;25.17;;;0.70;1.00;;;;;;4915657;29;20205;-83
2022/01/12 12:32:00;;;;;;;73.00;26.93;;;0.70;1.00;;;;;;4915722;29;20209;-82
2022/01/12 12:34:30;;;;;;;87.53;33.40;;;0.80;1.00;;;;;;4915606;29;20209;-81
2022/01/12 12:37:01;;;;;;;77.30;33.83;;;0.80;1.00;;;;;;4910459;29;20213;-81
2022/01/12 12:39:32;;;;;;;62.73;27.27;;;0.80;1.00;;;;;;4915995;29;20196;-82
2022/01/12 12:42:00;;;;;;;63.47;25.97;;;0.80;1.00;;;;;;4915949;29;20218;-84
2022/01/12 12:44:29;;;;;;;58.80;24.97;;;0.80;1.00;;;;;;4915891;29;20201;-84
2022/01/12 12:47:07;;;;;;;59.30;24.50;;;0.80;1.00;;;;;;4916615;29;20252;-84
2022/01/12 12:49:44;;;;;;;72.80;29.07;;;0.90;1.00;;;;;;4918545;29;20197;-83
2022/01/12 12:52:13;;;;;;;67.03;27.83;;;0.80;1.00;;;;;;4918931;29;20585;-83
2022/01/12 12:54:41;;;;;;;65.47;26.20;;;0.80;1.00;;;;;;4919575;29;20206;-84
2022/01/12 12:57:10;;;;;;;58.50;23.70;;;0.90;1.00;;;;;;4918298;29;20607;-82
2022/01/12 12:59:37;;;;;;;101.20;39.97;;;0.90;1.00;;;;;;4918974;29;20603;-83
2022/01/12 13:02:15;;;;;;;138.43;53.23;;;0.90;1.00;;;;;;4918785;29;20269;-82
2022/01/12 13:04:42;;;;;;;146.90;63.73;;;0.90;1.00;;;;;;4919054;29;20189;-84
2022/01/12 13:07:17;;;;;;;94.60;41.43;;;0.90;1.00;;;;;;4919398;29;20272;-81
2022/01/12 13:09:44;;;;;;;82.57;33.60;;;0.90;1.00;;;;;;4919122;29;20189;-82
2022/01/12 13:12:13;;;;;;;88.23;35.00;;;0.90;1.00;;;;;;4918967;29;20205;-80
2022/01/12 13:14:45;;;;;;;68.30;28.80;;;0.80;1.00;;;;;;4919261;29;20197;-84
2022/01/12 13:17:12;;;;;;;72.60;29.40;;;0.80;1.00;;;;;;4918734;29;20667;-84
2022/01/12 13:22:26;;;;;;;83.70;35.50;;;0.80;1.00;;;;;;4916583;29;20612;-81
2022/01/12 13:24:54;;;;;;;84.43;33.03;;;0.80;1.00;;;;;;4918629;29;20246;-83
2022/01/12 13:27:23;;;;;;;82.37;33.53;;;0.80;1.00;;;;;;4918892;29;20253;-83
2022/01/12 13:29:52;;;;;;;84.37;33.20;;;0.80;1.00;;;;;;4918496;29;20237;-84
2022/01/12 13:32:20;;;;;;;77.13;30.90;;;0.80;1.00;;;;;;4918870;29;20291;-84
2022/01/12 13:34:56;;;;;;;76.30;29.27;;;0.80;1.00;;;;;;4918321;29;20249;-83
2022/01/12 13:37:23;;;;;;;70.83;25.97;;;0.80;1.00;;;;;;4918639;29;20182;-84
2022/01/12 13:40:07;;;;;;;63.20;24.07;;;0.80;1.00;;;;;;4918688;29;20206;-83
2022/01/12 13:42:45;;;;;;;86.27;30.80;;;0.80;1.00;;;;;;4918097;29;20680;-84
2022/01/12 13:45:15;;;;;;;76.13;26.33;;;0.80;1.00;;;;;;4918336;29;20711;-84
2022/01/12 13:47:48;;;;;;;72.40;25.27;;;0.80;1.00;;;;;;4918697;29;20197;-81
2022/01/12 13:50:17;;;;;;;77.53;25.80;;;0.80;1.00;;;;;;4919121;29;20201;-84
2022/01/12 13:52:55;;;;;;;68.83;25.20;;;0.80;1.00;;;;;;4918129;29;20205;-81
2022/01/12 13:55:23;;;;;;;68.13;25.53;;;0.80;1.00;;;;;;4918388;29;20194;-84
2022/01/12 13:57:57;;;;;;;71.87;24.40;;;0.80;1.00;;;;;;4917773;29;20367;-84
2022/01/12 14:00:24;;;;;;;73.00;26.00;;;0.80;1.00;;;;;;4916309;29;20221;-84
2022/01/12 14:02:52;;;;;;;88.00;28.40;;;0.80;1.00;;;;;;4898763;29;20229;-81
2022/01/12 14:05:20;;;;;;;87.30;28.60;;;0.70;1.00;;;;;;4898721;29;20653;-80
2022/01/12 14:07:59;;;;;;;75.57;26.53;;;0.70;1.00;;;;;;4898633;29;20229;-80
2022/01/12 14:10:29;;;;;;;81.60;26.43;;;0.70;1.00;;;;;;4900926;29;20258;-82
2022/01/12 14:12:57;;;;;;;80.97;27.10;;;0.70;70.40;;;;;;4898678;29;20213;-83
2022/01/12 14:15:26;;;;;;;80.07;26.17;;;0.70;99.90;;;;;;4898848;29;20240;-84
2022/01/12 14:17:54;;;;;;;89.27;27.17;;;0.70;99.90;;;;;;4898818;29;20205;-84